Terminal Aerodrome Forecast
Issued by NWS Bismarck, ND

Home | Current Version | Previous Version | Graphics & Text | Print | Product List | Glossary On
Versions: 1 2 3 4 5 6 7 8 9 10 11 12 13 14 15
000
FTUS43 KBIS 302320
TAFBIS
TAF
KBIS 302320Z 0100/0124 31015G24KT P6SM VCSH BKN080
     FM010200 29005KT P6SM SCT090
     FM010600 31005KT P6SM SKC
     FM011500 26010KT P6SM SKC
     FM011900 25011KT P6SM SCT070=

USA.gov is the U.S. government's official web portal to all federal, state and local government web resources and services.